Inicio METAR Ruta Wind Satelite

Informe Meteorológico

Fecha: 2024/06/18 18:58:57 Local
2024.06.18 23:58 UTC


Operación:VFR
SKLT 182300Z 00000KT 9999 SCT020 26/25 Q1006 =

SKLT 182200Z VRB02KT 9999 SCT020 29/25 Q1006
SKLT 182100Z VRB02KT 9999 SCT020 28/25 Q1006 RERA
SKLT 182000Z VRB02KT 9999 RA SCT020 32/24 Q1006
SKLT 181900Z 18004KT 9999 SCT020 31/25 Q1007
SKLT 181800Z VRB02KT 9999 SCT017 32/25 Q1009

2024/06/18 18:42
TAF SKLT 181630Z 1818/1918 25006KT 9999 SCT015 PROB40
TEMPO 1909/1912 2000 BR BKN006 TX32/1819Z TN22/1910Z